< Cyclone 201817 2018 Season Cyclone 201821 >
Cyclone 201820 (Marcus)
General InformationTrack Information on Google MapsDetailed Wind InformationList of All Images || ResourceGoogle EarthGE AnimationAtom FeedGeoJSON
Detalied Best Track (Time Zone = UTC)
Year Month Day Hour Lat. Long. Pressure (hPa) Wind (kt) Class Image Chart
2018 3 14 00 -8.9 129.0 1005 15 2 Image --
2018 3 14 06 -8.9 129.0 1005 15 2 Image --
2018 3 14 12 -8.9 129.5 1005 15 2 Image --
2018 3 14 18 -8.9 130.0 1005 20 2 Image --
2018 3 15 00 -9.1 130.7 1005 25 2 Image --
2018 3 15 06 -9.2 131.1 1000 25 2 Image --
2018 3 15 12 -9.3 131.5 996 35 3 Image --
2018 3 15 18 -9.7 132.1 996 35 3 Image --
2018 3 16 00 -10.2 132.5 995 40 3 Image --
2018 3 16 06 -10.8 132.2 993 45 3 Image --
2018 3 16 12 -11.0 131.9 988 50 4 Image --
2018 3 16 18 -11.4 131.7 985 55 4 Image --
2018 3 16 21 -11.9 131.5 982 60 4 Image --
2018 3 17 00 -12.3 131.0 980 55 4 Image --
2018 3 17 06 -13.0 130.1 988 50 4 Image --
2018 3 17 12 -13.3 129.3 988 50 4 Image --
2018 3 17 18 -13.7 128.7 983 60 4 Image --
2018 3 18 00 -14.0 127.7 987 55 4 Image --
2018 3 18 06 -14.5 126.4 992 40 3 Image --
2018 3 18 12 -14.7 125.1 997 35 3 Image --
2018 3 18 18 -14.8 124.1 994 40 3 Image --
2018 3 19 00 -14.7 123.5 982 60 4 Image --
2018 3 19 06 -15.3 122.8 969 75 5 Image --
2018 3 19 12 -15.3 121.1 958 90 5 Image --
2018 3 19 18 -14.9 119.7 961 90 5 Image --
2018 3 20 00 -14.8 118.3 961 90 5 Image --
2018 3 20 06 -14.5 116.9 959 90 5 Image --
2018 3 20 12 -14.4 115.5 959 90 5 Image --
2018 3 20 18 -14.4 113.6 951 100 5 Image --
2018 3 21 00 -14.2 112.2 935 110 5 Image --
2018 3 21 06 -14.8 110.9 913 130 5 Image --
2018 3 21 12 -14.9 109.6 905 135 5 Image --
2018 3 21 18 -15.3 108.4 905 135 5 Image --
2018 3 22 00 -15.7 107.4 907 130 5 Image --
2018 3 22 06 -16.5 106.7 931 110 5 Image --
2018 3 22 12 -17.3 106.4 942 100 5 Image --
2018 3 22 18 -18.7 106.0 953 90 5 Image --
2018 3 23 00 -19.9 105.9 960 85 5 Image --
2018 3 23 06 -21.2 105.9 964 80 5 Image --
2018 3 23 12 -22.1 106.1 967 75 5 Image --
2018 3 23 18 -23.9 106.6 976 65 5 Image --
2018 3 24 00 -25.6 107.1 977 60 4 Image --
2018 3 24 06 -26.7 107.4 985 45 3 Image --
2018 3 24 12 -27.5 107.5 998 30 2 Image --
2018 3 24 18 -28.2 107.9 997 30 2 Image --
2018 3 25 00 -28.7 108.4 998 25 2 Image --
< Cyclone 201817 2018 Season Cyclone 201821 >

Help